sensor_id;sensor_type;location;lat;lon;timestamp;pressure;altitude;pressure_sealevel;temperature;humidity
63916;BME280;50094;51.356;-0.196;2022-12-26T00:01:03;99980.67;;;23.97;30.74
63916;BME280;50094;51.356;-0.196;2022-12-26T00:03:31;99984.79;;;24.25;30.71
63916;BME280;50094;51.356;-0.196;2022-12-26T00:05:57;99986.30;;;24.26;30.69
63916;BME280;50094;51.356;-0.196;2022-12-26T00:08:24;99990.80;;;24.13;30.71
63916;BME280;50094;51.356;-0.196;2022-12-26T00:10:51;99988.49;;;23.86;30.71
63916;BME280;50094;51.356;-0.196;2022-12-26T00:13:18;99974.20;;;24.15;30.70
63916;BME280;50094;51.356;-0.196;2022-12-26T00:15:46;99975.11;;;24.14;30.70
63916;BME280;50094;51.356;-0.196;2022-12-26T00:18:12;99976.28;;;24.41;30.68
63916;BME280;50094;51.356;-0.196;2022-12-26T00:20:39;99977.70;;;24.21;30.67
63916;BME280;50094;51.356;-0.196;2022-12-26T00:23:06;99971.21;;;24.41;30.66
63916;BME280;50094;51.356;-0.196;2022-12-26T00:25:33;99971.59;;;24.17;30.64
63916;BME280;50094;51.356;-0.196;2022-12-26T00:28:00;99972.02;;;24.17;30.62
63916;BME280;50094;51.356;-0.196;2022-12-26T00:30:28;99972.67;;;24.02;30.64
63916;BME280;50094;51.356;-0.196;2022-12-26T00:32:55;99976.09;;;24.01;30.65
63916;BME280;50094;51.356;-0.196;2022-12-26T00:35:22;99970.77;;;24.19;30.65
63916;BME280;50094;51.356;-0.196;2022-12-26T00:37:49;99969.70;;;24.00;30.66
63916;BME280;50094;51.356;-0.196;2022-12-26T00:40:16;99962.94;;;23.98;30.68
63916;BME280;50094;51.356;-0.196;2022-12-26T00:42:43;99962.36;;;24.01;30.64
63916;BME280;50094;51.356;-0.196;2022-12-26T00:45:10;99961.61;;;23.84;30.67
63916;BME280;50094;51.356;-0.196;2022-12-26T00:47:37;99971.63;;;23.80;30.69
63916;BME280;50094;51.356;-0.196;2022-12-26T00:50:05;99965.29;;;23.95;30.72
63916;BME280;50094;51.356;-0.196;2022-12-26T00:52:32;99964.13;;;23.91;30.74
63916;BME280;50094;51.356;-0.196;2022-12-26T00:54:58;99959.57;;;24.20;30.73
63916;BME280;50094;51.356;-0.196;2022-12-26T00:57:25;99952.97;;;23.78;30.73
63916;BME280;50094;51.356;-0.196;2022-12-26T00:59:52;99950.29;;;23.81;30.72
63916;BME280;50094;51.356;-0.196;2022-12-26T01:02:19;99952.53;;;23.80;30.69
63916;BME280;50094;51.356;-0.196;2022-12-26T01:04:46;99952.76;;;24.05;30.67
63916;BME280;50094;51.356;-0.196;2022-12-26T01:07:13;99959.15;;;24.14;30.67
63916;BME280;50094;51.356;-0.196;2022-12-26T01:09:40;99964.72;;;23.65;30.67
63916;BME280;50094;51.356;-0.196;2022-12-26T01:12:06;99958.56;;;23.85;30.67
63916;BME280;50094;51.356;-0.196;2022-12-26T01:14:33;99955.92;;;23.84;30.67
63916;BME280;50094;51.356;-0.196;2022-12-26T01:17:00;99951.32;;;23.66;30.65
63916;BME280;50094;51.356;-0.196;2022-12-26T01:19:28;99950.51;;;23.69;30.64
63916;BME280;50094;51.356;-0.196;2022-12-26T01:21:55;99953.71;;;23.79;30.59
63916;BME280;50094;51.356;-0.196;2022-12-26T01:24:21;99949.74;;;23.94;30.60
63916;BME280;50094;51.356;-0.196;2022-12-26T01:26:48;99951.03;;;23.98;30.58
63916;BME280;50094;51.356;-0.196;2022-12-26T01:29:15;99949.43;;;23.69;30.57
63916;BME280;50094;51.356;-0.196;2022-12-26T01:31:42;99950.17;;;23.97;30.56
63916;BME280;50094;51.356;-0.196;2022-12-26T01:34:09;99954.04;;;23.95;30.52
63916;BME280;50094;51.356;-0.196;2022-12-26T01:36:37;99951.40;;;23.73;30.49
63916;BME280;50094;51.356;-0.196;2022-12-26T01:39:03;99952.89;;;23.68;30.47
63916;BME280;50094;51.356;-0.196;2022-12-26T01:41:30;99949.46;;;24.12;30.47
63916;BME280;50094;51.356;-0.196;2022-12-26T01:43:59;99956.18;;;23.77;30.51
63916;BME280;50094;51.356;-0.196;2022-12-26T01:46:30;99961.82;;;24.07;30.47
63916;BME280;50094;51.356;-0.196;2022-12-26T01:49:04;99956.59;;;23.79;30.51
63916;BME280;50094;51.356;-0.196;2022-12-26T01:51:37;99958.65;;;23.98;30.51
63916;BME280;50094;51.356;-0.196;2022-12-26T01:54:07;99958.68;;;23.80;30.47
63916;BME280;50094;51.356;-0.196;2022-12-26T01:56:37;99955.19;;;23.99;30.49
63916;BME280;50094;51.356;-0.196;2022-12-26T01:59:08;99951.33;;;23.92;30.50
63916;BME280;50094;51.356;-0.196;2022-12-26T02:01:39;99949.00;;;23.89;30.51
63916;BME280;50094;51.356;-0.196;2022-12-26T02:04:11;99948.85;;;23.69;30.53
63916;BME280;50094;51.356;-0.196;2022-12-26T02:06:39;99949.10;;;23.45;30.53
63916;BME280;50094;51.356;-0.196;2022-12-26T02:09:07;99946.53;;;23.58;30.54
63916;BME280;50094;51.356;-0.196;2022-12-26T02:11:37;99947.97;;;23.46;30.64
63916;BME280;50094;51.356;-0.196;2022-12-26T02:14:07;99949.30;;;23.69;30.60
63916;BME280;50094;51.356;-0.196;2022-12-26T02:16:35;99947.09;;;23.63;30.62
63916;BME280;50094;51.356;-0.196;2022-12-26T02:19:08;99956.82;;;23.51;30.58
63916;BME280;50094;51.356;-0.196;2022-12-26T02:22:08;99962.45;;;23.85;30.63
63916;BME280;50094;51.356;-0.196;2022-12-26T02:27:09;99966.51;;;23.55;30.61
63916;BME280;50094;51.356;-0.196;2022-12-26T02:30:19;99959.45;;;23.39;30.67
63916;BME280;50094;51.356;-0.196;2022-12-26T02:33:01;99961.61;;;23.36;30.70
63916;BME280;50094;51.356;-0.196;2022-12-26T02:35:45;99966.95;;;23.20;30.69
63916;BME280;50094;51.356;-0.196;2022-12-26T02:38:23;99957.37;;;23.46;30.68
63916;BME280;50094;51.356;-0.196;2022-12-26T02:41:02;99958.96;;;23.79;30.67
63916;BME280;50094;51.356;-0.196;2022-12-26T02:43:38;99955.80;;;23.59;30.65
63916;BME280;50094;51.356;-0.196;2022-12-26T02:46:14;99956.16;;;23.50;30.68
63916;BME280;50094;51.356;-0.196;2022-12-26T02:48:50;99959.66;;;23.49;30.67
63916;BME280;50094;51.356;-0.196;2022-12-26T02:51:32;99974.62;;;23.41;30.70
63916;BME280;50094;51.356;-0.196;2022-12-26T02:54:11;99984.38;;;23.42;30.69
63916;BME280;50094;51.356;-0.196;2022-12-26T02:56:45;99982.38;;;23.19;30.78
63916;BME280;50094;51.356;-0.196;2022-12-26T02:59:21;99996.07;;;23.43;30.71
63916;BME280;50094;51.356;-0.196;2022-12-26T03:01:53;99995.68;;;23.50;30.67
63916;BME280;50094;51.356;-0.196;2022-12-26T03:04:25;99994.71;;;23.45;30.68
63916;BME280;50094;51.356;-0.196;2022-12-26T03:06:58;100002.47;;;23.53;30.65
63916;BME280;50094;51.356;-0.196;2022-12-26T03:09:30;100010.93;;;23.53;30.66
63916;BME280;50094;51.356;-0.196;2022-12-26T03:12:01;100014.64;;;23.46;30.65
63916;BME280;50094;51.356;-0.196;2022-12-26T03:14:34;100024.18;;;23.51;30.63
63916;BME280;50094;51.356;-0.196;2022-12-26T03:17:05;100020.61;;;23.51;30.63
63916;BME280;50094;51.356;-0.196;2022-12-26T03:19:36;100019.96;;;23.35;30.68
63916;BME280;50094;51.356;-0.196;2022-12-26T03:22:06;100025.94;;;23.33;30.68
63916;BME280;50094;51.356;-0.196;2022-12-26T03:24:34;100022.03;;;23.39;30.68
63916;BME280;50094;51.356;-0.196;2022-12-26T03:27:01;100028.74;;;23.06;30.73
63916;BME280;50094;51.356;-0.196;2022-12-26T03:29:28;100027.44;;;23.44;30.71
63916;BME280;50094;51.356;-0.196;2022-12-26T03:31:55;100024.77;;;23.50;30.68
63916;BME280;50094;51.356;-0.196;2022-12-26T03:34:23;100028.85;;;23.50;30.67
63916;BME280;50094;51.356;-0.196;2022-12-26T03:37:04;100039.65;;;23.47;30.65
63916;BME280;50094;51.356;-0.196;2022-12-26T03:39:41;100048.85;;;23.28;30.71
63916;BME280;50094;51.356;-0.196;2022-12-26T03:42:22;100057.91;;;23.25;30.75
63916;BME280;50094;51.356;-0.196;2022-12-26T03:44:59;100058.06;;;23.26;30.85
63916;BME280;50094;51.356;-0.196;2022-12-26T03:47:37;100063.08;;;23.12;30.83
63916;BME280;50094;51.356;-0.196;2022-12-26T03:50:09;100060.96;;;23.06;30.88
63916;BME280;50094;51.356;-0.196;2022-12-26T03:52:47;100072.58;;;22.95;30.93
63916;BME280;50094;51.356;-0.196;2022-12-26T03:55:21;100077.07;;;23.02;30.92
63916;BME280;50094;51.356;-0.196;2022-12-26T03:57:56;100077.10;;;23.04;30.92
63916;BME280;50094;51.356;-0.196;2022-12-26T04:00:28;100086.75;;;23.18;30.90
63916;BME280;50094;51.356;-0.196;2022-12-26T04:02:59;100089.18;;;23.21;30.87
63916;BME280;50094;51.356;-0.196;2022-12-26T04:05:32;100095.33;;;23.28;30.84
63916;BME280;50094;51.356;-0.196;2022-12-26T04:08:05;100095.38;;;23.09;30.88
63916;BME280;50094;51.356;-0.196;2022-12-26T04:10:36;100105.60;;;23.28;30.91
63916;BME280;50094;51.356;-0.196;2022-12-26T04:13:07;100115.77;;;23.09;30.90
63916;BME280;50094;51.356;-0.196;2022-12-26T04:15:43;100125.72;;;23.08;30.90
63916;BME280;50094;51.356;-0.196;2022-12-26T04:18:14;100127.22;;;22.99;31.05
63916;BME280;50094;51.356;-0.196;2022-12-26T04:20:48;100129.47;;;22.89;30.97
63916;BME280;50094;51.356;-0.196;2022-12-26T04:23:20;100140.06;;;23.09;30.95
63916;BME280;50094;51.356;-0.196;2022-12-26T04:25:53;100150.14;;;23.23;30.90
63916;BME280;50094;51.356;-0.196;2022-12-26T04:28:24;100156.42;;;23.28;30.86
63916;BME280;50094;51.356;-0.196;2022-12-26T04:30:57;100163.65;;;22.95;30.85
63916;BME280;50094;51.356;-0.196;2022-12-26T04:33:29;100175.29;;;23.07;30.86
63916;BME280;50094;51.356;-0.196;2022-12-26T04:36:03;100176.53;;;23.37;30.76
63916;BME280;50094;51.356;-0.196;2022-12-26T04:38:36;100183.40;;;22.97;30.75
63916;BME280;50094;51.356;-0.196;2022-12-26T04:41:06;100191.38;;;23.11;30.68
63916;BME280;50094;51.356;-0.196;2022-12-26T04:43:35;100194.92;;;23.02;30.66
63916;BME280;50094;51.356;-0.196;2022-12-26T04:46:02;100197.53;;;23.03;30.63
63916;BME280;50094;51.356;-0.196;2022-12-26T04:48:29;100201.10;;;23.12;30.59
63916;BME280;50094;51.356;-0.196;2022-12-26T04:50:57;100203.80;;;23.14;30.56
63916;BME280;50094;51.356;-0.196;2022-12-26T04:53:24;100210.30;;;23.17;30.51
63916;BME280;50094;51.356;-0.196;2022-12-26T04:55:51;100216.50;;;23.18;30.46
63916;BME280;50094;51.356;-0.196;2022-12-26T04:58:18;100225.23;;;23.42;30.44
63916;BME280;50094;51.356;-0.196;2022-12-26T05:00:44;100229.93;;;23.18;30.41
63916;BME280;50094;51.356;-0.196;2022-12-26T05:03:13;100238.30;;;23.14;30.36
63916;BME280;50094;51.356;-0.196;2022-12-26T05:05:42;100248.17;;;23.20;30.33
63916;BME280;50094;51.356;-0.196;2022-12-26T05:08:20;100253.03;;;22.98;30.33
63916;BME280;50094;51.356;-0.196;2022-12-26T05:10:48;100261.17;;;23.12;30.28
63916;BME280;50094;51.356;-0.196;2022-12-26T05:13:16;100265.30;;;23.47;30.26
63916;BME280;50094;51.356;-0.196;2022-12-26T05:15:43;100266.49;;;23.21;30.23
63916;BME280;50094;51.356;-0.196;2022-12-26T05:18:10;100272.62;;;23.23;30.15
63916;BME280;50094;51.356;-0.196;2022-12-26T05:20:38;100274.52;;;23.23;30.10
63916;BME280;50094;51.356;-0.196;2022-12-26T05:23:14;100282.10;;;23.28;30.06
63916;BME280;50094;51.356;-0.196;2022-12-26T05:25:43;100291.19;;;23.49;30.05
63916;BME280;50094;51.356;-0.196;2022-12-26T05:28:12;100290.61;;;22.92;30.11
63916;BME280;50094;51.356;-0.196;2022-12-26T05:30:40;100301.79;;;22.96;30.09
63916;BME280;50094;51.356;-0.196;2022-12-26T05:33:07;100306.11;;;23.10;30.14
63916;BME280;50094;51.356;-0.196;2022-12-26T05:35:34;100313.88;;;23.09;30.14
63916;BME280;50094;51.356;-0.196;2022-12-26T05:38:02;100322.80;;;22.61;30.34
63916;BME280;50094;51.356;-0.196;2022-12-26T05:40:29;100347.12;;;22.34;30.46
63916;BME280;50094;51.356;-0.196;2022-12-26T05:42:56;100354.27;;;22.92;30.37
63916;BME280;50094;51.356;-0.196;2022-12-26T05:45:24;100365.93;;;23.09;30.42
63916;BME280;50094;51.356;-0.196;2022-12-26T05:47:57;100376.26;;;23.00;30.45
63916;BME280;50094;51.356;-0.196;2022-12-26T05:50:24;100382.60;;;22.96;30.42
63916;BME280;50094;51.356;-0.196;2022-12-26T05:52:51;100387.09;;;23.12;30.38
63916;BME280;50094;51.356;-0.196;2022-12-26T05:55:19;100390.04;;;23.16;30.34
63916;BME280;50094;51.356;-0.196;2022-12-26T05:57:46;100391.49;;;23.28;30.32
63916;BME280;50094;51.356;-0.196;2022-12-26T06:00:13;100396.72;;;23.14;30.31
63916;BME280;50094;51.356;-0.196;2022-12-26T06:02:41;100399.12;;;23.49;30.27
63916;BME280;50094;51.356;-0.196;2022-12-26T06:05:08;100404.80;;;23.56;30.23
63916;BME280;50094;51.356;-0.196;2022-12-26T06:07:36;100413.32;;;23.67;30.19
63916;BME280;50094;51.356;-0.196;2022-12-26T06:10:03;100410.60;;;23.23;30.08
63916;BME280;50094;51.356;-0.196;2022-12-26T06:12:31;100416.02;;;23.55;30.08
63916;BME280;50094;51.356;-0.196;2022-12-26T06:14:59;100424.03;;;23.60;30.04
63916;BME280;50094;51.356;-0.196;2022-12-26T06:17:25;100433.82;;;23.65;29.98
63916;BME280;50094;51.356;-0.196;2022-12-26T06:19:52;100439.02;;;23.91;29.91
63916;BME280;50094;51.356;-0.196;2022-12-26T06:22:19;100447.94;;;23.58;29.82
63916;BME280;50094;51.356;-0.196;2022-12-26T06:24:46;100451.80;;;24.06;29.75
63916;BME280;50094;51.356;-0.196;2022-12-26T06:27:13;100455.81;;;23.85;29.69
63916;BME280;50094;51.356;-0.196;2022-12-26T06:29:40;100462.74;;;23.78;29.68
63916;BME280;50094;51.356;-0.196;2022-12-26T06:32:07;100467.69;;;24.09;29.64
63916;BME280;50094;51.356;-0.196;2022-12-26T06:34:34;100475.25;;;23.82;29.55
63916;BME280;50094;51.356;-0.196;2022-12-26T06:37:01;100483.36;;;23.49;29.44
63916;BME280;50094;51.356;-0.196;2022-12-26T06:39:28;100485.03;;;23.81;29.40
63916;BME280;50094;51.356;-0.196;2022-12-26T06:41:56;100490.31;;;23.68;29.31
63916;BME280;50094;51.356;-0.196;2022-12-26T06:44:23;100495.22;;;23.91;29.27
63916;BME280;50094;51.356;-0.196;2022-12-26T06:46:49;100502.06;;;23.85;29.22
63916;BME280;50094;51.356;-0.196;2022-12-26T06:49:16;100508.65;;;24.07;29.19
63916;BME280;50094;51.356;-0.196;2022-12-26T06:51:43;100514.60;;;23.55;29.05
63916;BME280;50094;51.356;-0.196;2022-12-26T06:54:10;100520.15;;;23.58;29.05
63916;BME280;50094;51.356;-0.196;2022-12-26T06:56:37;100526.26;;;23.53;29.03
63916;BME280;50094;51.356;-0.196;2022-12-26T06:59:05;100531.39;;;23.76;28.95
63916;BME280;50094;51.356;-0.196;2022-12-26T07:01:33;100538.37;;;23.49;28.86
63916;BME280;50094;51.356;-0.196;2022-12-26T07:04:01;100545.26;;;23.72;28.81
63916;BME280;50094;51.356;-0.196;2022-12-26T07:06:29;100551.18;;;23.46;28.75
63916;BME280;50094;51.356;-0.196;2022-12-26T07:08:58;100554.70;;;23.49;28.66
63916;BME280;50094;51.356;-0.196;2022-12-26T07:11:29;100560.70;;;23.87;28.62
63916;BME280;50094;51.356;-0.196;2022-12-26T07:13:57;100565.61;;;23.70;28.51
63916;BME280;50094;51.356;-0.196;2022-12-26T07:16:25;100570.64;;;23.77;28.46
63916;BME280;50094;51.356;-0.196;2022-12-26T07:18:54;100575.96;;;23.53;28.41
63916;BME280;50094;51.356;-0.196;2022-12-26T07:21:22;100580.77;;;23.61;28.34
63916;BME280;50094;51.356;-0.196;2022-12-26T07:23:51;100586.91;;;23.38;28.24
63916;BME280;50094;51.356;-0.196;2022-12-26T07:26:19;100591.09;;;23.59;28.23
63916;BME280;50094;51.356;-0.196;2022-12-26T07:28:46;100593.88;;;23.64;28.20
63916;BME280;50094;51.356;-0.196;2022-12-26T07:31:15;100595.47;;;23.63;28.16
63916;BME280;50094;51.356;-0.196;2022-12-26T07:33:42;100595.64;;;23.41;28.15
63916;BME280;50094;51.356;-0.196;2022-12-26T07:36:09;100596.39;;;23.39;28.14
63916;BME280;50094;51.356;-0.196;2022-12-26T07:38:36;100598.77;;;23.61;28.13
63916;BME280;50094;51.356;-0.196;2022-12-26T07:41:03;100606.56;;;23.36;28.13
63916;BME280;50094;51.356;-0.196;2022-12-26T07:43:30;100619.71;;;23.57;28.12
63916;BME280;50094;51.356;-0.196;2022-12-26T07:45:57;100627.68;;;23.52;28.08
63916;BME280;50094;51.356;-0.196;2022-12-26T07:48:24;100631.03;;;23.29;28.06
63916;BME280;50094;51.356;-0.196;2022-12-26T07:50:51;100638.81;;;23.51;28.06
63916;BME280;50094;51.356;-0.196;2022-12-26T07:53:18;100646.36;;;23.52;28.02
63916;BME280;50094;51.356;-0.196;2022-12-26T07:55:44;100651.44;;;23.59;27.97
63916;BME280;50094;51.356;-0.196;2022-12-26T07:58:11;100657.50;;;23.58;27.92
63916;BME280;50094;51.356;-0.196;2022-12-26T08:00:38;100659.79;;;23.47;27.91
63916;BME280;50094;51.356;-0.196;2022-12-26T08:03:08;100662.95;;;23.41;27.92
63916;BME280;50094;51.356;-0.196;2022-12-26T08:05:35;100671.88;;;23.66;27.92
63916;BME280;50094;51.356;-0.196;2022-12-26T08:08:03;100676.63;;;23.13;27.92
63916;BME280;50094;51.356;-0.196;2022-12-26T08:10:30;100685.94;;;23.11;27.90
63916;BME280;50094;51.356;-0.196;2022-12-26T08:12:57;100692.71;;;23.07;27.89
63916;BME280;50094;51.356;-0.196;2022-12-26T08:15:25;100694.76;;;23.28;27.89
63916;BME280;50094;51.356;-0.196;2022-12-26T08:17:51;100697.14;;;23.23;27.88
63916;BME280;50094;51.356;-0.196;2022-12-26T08:20:18;100701.14;;;23.21;27.91
63916;BME280;50094;51.356;-0.196;2022-12-26T08:22:45;100705.17;;;23.40;27.95
63916;BME280;50094;51.356;-0.196;2022-12-26T08:25:12;100712.77;;;23.22;27.91
63916;BME280;50094;51.356;-0.196;2022-12-26T08:27:39;100719.58;;;23.25;27.91
63916;BME280;50094;51.356;-0.196;2022-12-26T08:30:07;100722.78;;;23.25;27.88
63916;BME280;50094;51.356;-0.196;2022-12-26T08:32:34;100729.45;;;23.47;27.88
63916;BME280;50094;51.356;-0.196;2022-12-26T08:35:02;100734.89;;;23.21;27.87
63916;BME280;50094;51.356;-0.196;2022-12-26T08:37:29;100738.55;;;23.19;27.87
63916;BME280;50094;51.356;-0.196;2022-12-26T08:39:56;100743.94;;;23.24;27.83
63916;BME280;50094;51.356;-0.196;2022-12-26T08:42:23;100747.89;;;23.49;27.82
63916;BME280;50094;51.356;-0.196;2022-12-26T08:44:49;100753.88;;;23.28;27.78
63916;BME280;50094;51.356;-0.196;2022-12-26T08:47:16;100757.34;;;23.22;27.76
63916;BME280;50094;51.356;-0.196;2022-12-26T08:49:43;100764.51;;;23.22;27.72
63916;BME280;50094;51.356;-0.196;2022-12-26T08:52:10;100771.19;;;23.17;27.72
63916;BME280;50094;51.356;-0.196;2022-12-26T08:54:37;100780.14;;;23.10;27.74
63916;BME280;50094;51.356;-0.196;2022-12-26T08:57:05;100783.57;;;23.11;27.74
63916;BME280;50094;51.356;-0.196;2022-12-26T08:59:32;100786.06;;;22.90;27.72
63916;BME280;50094;51.356;-0.196;2022-12-26T09:01:58;100787.95;;;23.14;27.71
63916;BME280;50094;51.356;-0.196;2022-12-26T09:04:25;100792.78;;;23.11;27.68
63916;BME280;50094;51.356;-0.196;2022-12-26T09:06:52;100795.03;;;23.16;27.63
63916;BME280;50094;51.356;-0.196;2022-12-26T09:09:19;100801.40;;;23.38;27.63
63916;BME280;50094;51.356;-0.196;2022-12-26T09:11:46;100809.80;;;23.23;27.55
63916;BME280;50094;51.356;-0.196;2022-12-26T09:14:13;100812.07;;;23.16;27.56
63916;BME280;50094;51.356;-0.196;2022-12-26T09:16:41;100816.54;;;23.40;27.54
63916;BME280;50094;51.356;-0.196;2022-12-26T09:19:11;100817.35;;;23.13;27.51
63916;BME280;50094;51.356;-0.196;2022-12-26T09:21:38;100822.13;;;23.14;27.48
63916;BME280;50094;51.356;-0.196;2022-12-26T09:24:10;100833.49;;;23.10;27.49
63916;BME280;50094;51.356;-0.196;2022-12-26T09:26:38;100843.39;;;23.31;27.48
63916;BME280;50094;51.356;-0.196;2022-12-26T09:29:06;100847.23;;;23.26;27.51
63916;BME280;50094;51.356;-0.196;2022-12-26T09:31:34;100852.49;;;23.26;27.50
63916;BME280;50094;51.356;-0.196;2022-12-26T09:34:02;100855.60;;;23.22;27.51
63916;BME280;50094;51.356;-0.196;2022-12-26T09:36:32;100853.04;;;23.22;27.51
63916;BME280;50094;51.356;-0.196;2022-12-26T09:39:00;100860.44;;;23.27;27.48
63916;BME280;50094;51.356;-0.196;2022-12-26T09:41:40;100862.39;;;22.99;27.47
63916;BME280;50094;51.356;-0.196;2022-12-26T09:44:16;100865.14;;;23.00;27.45
63916;BME280;50094;51.356;-0.196;2022-12-26T09:46:53;100868.00;;;23.31;27.40
63916;BME280;50094;51.356;-0.196;2022-12-26T09:49:23;100872.48;;;23.27;27.40
63916;BME280;50094;51.356;-0.196;2022-12-26T09:51:56;100876.40;;;23.01;27.36
63916;BME280;50094;51.356;-0.196;2022-12-26T09:54:30;100885.09;;;23.04;27.34
63916;BME280;50094;51.356;-0.196;2022-12-26T09:57:01;100890.76;;;23.27;27.32
63916;BME280;50094;51.356;-0.196;2022-12-26T09:59:33;100896.44;;;22.92;27.33
63916;BME280;50094;51.356;-0.196;2022-12-26T10:02:07;100900.22;;;22.92;27.33
63916;BME280;50094;51.356;-0.196;2022-12-26T10:04:37;100907.62;;;23.17;27.33
63916;BME280;50094;51.356;-0.196;2022-12-26T10:07:11;100913.65;;;23.31;27.37
63916;BME280;50094;51.356;-0.196;2022-12-26T10:09:53;100921.34;;;23.02;27.40
63916;BME280;50094;51.356;-0.196;2022-12-26T10:12:32;100926.43;;;23.05;27.39
63916;BME280;50094;51.356;-0.196;2022-12-26T10:15:13;100928.33;;;23.05;27.38
63916;BME280;50094;51.356;-0.196;2022-12-26T10:17:51;100933.73;;;23.00;27.41
63916;BME280;50094;51.356;-0.196;2022-12-26T10:20:30;100935.61;;;22.99;27.42
63916;BME280;50094;51.356;-0.196;2022-12-26T10:23:12;100941.71;;;22.70;27.42
63916;BME280;50094;51.356;-0.196;2022-12-26T10:25:44;100949.64;;;23.15;27.43
63916;BME280;50094;51.356;-0.196;2022-12-26T10:28:17;100952.95;;;23.18;27.43
63916;BME280;50094;51.356;-0.196;2022-12-26T10:30:46;100961.63;;;23.16;27.42
63916;BME280;50094;51.356;-0.196;2022-12-26T10:33:29;100967.18;;;22.65;27.41
63916;BME280;50094;51.356;-0.196;2022-12-26T10:36:00;100970.29;;;23.16;27.41
63916;BME280;50094;51.356;-0.196;2022-12-26T10:38:32;100975.28;;;22.89;27.41
63916;BME280;50094;51.356;-0.196;2022-12-26T10:41:05;100977.29;;;22.64;27.42
63916;BME280;50094;51.356;-0.196;2022-12-26T10:43:38;100977.33;;;22.89;27.41
63916;BME280;50094;51.356;-0.196;2022-12-26T10:46:18;100976.23;;;22.63;27.38
63916;BME280;50094;51.356;-0.196;2022-12-26T10:48:48;100974.48;;;23.05;27.36
63916;BME280;50094;51.356;-0.196;2022-12-26T10:51:16;100980.98;;;23.02;27.33
63916;BME280;50094;51.356;-0.196;2022-12-26T10:53:47;100980.28;;;22.84;27.32
63916;BME280;50094;51.356;-0.196;2022-12-26T10:56:14;100980.51;;;22.76;27.33
63916;BME280;50094;51.356;-0.196;2022-12-26T10:58:44;100979.32;;;23.01;27.30
63916;BME280;50094;51.356;-0.196;2022-12-26T11:01:44;100984.63;;;22.98;27.28
63916;BME280;50094;51.356;-0.196;2022-12-26T11:04:15;100983.04;;;22.78;27.26
63916;BME280;50094;51.356;-0.196;2022-12-26T11:06:43;100985.00;;;23.02;27.26
63916;BME280;50094;51.356;-0.196;2022-12-26T11:09:25;100989.05;;;22.96;27.19
63916;BME280;50094;51.356;-0.196;2022-12-26T11:11:55;100988.40;;;22.72;27.17
63916;BME280;50094;51.356;-0.196;2022-12-26T11:14:28;100991.42;;;22.96;27.16
63916;BME280;50094;51.356;-0.196;2022-12-26T11:16:58;100989.98;;;22.88;27.18
63916;BME280;50094;51.356;-0.196;2022-12-26T11:19:28;100992.86;;;22.89;27.15
63916;BME280;50094;51.356;-0.196;2022-12-26T11:22:20;100991.56;;;22.89;27.17
63916;BME280;50094;51.356;-0.196;2022-12-26T11:25:09;100993.91;;;22.77;27.22
63916;BME280;50094;51.356;-0.196;2022-12-26T11:27:38;100996.25;;;22.69;27.21
63916;BME280;50094;51.356;-0.196;2022-12-26T11:30:24;100995.96;;;22.67;27.25
63916;BME280;50094;51.356;-0.196;2022-12-26T11:33:04;101001.25;;;22.67;27.21
63916;BME280;50094;51.356;-0.196;2022-12-26T11:35:34;101007.27;;;22.82;27.16
63916;BME280;50094;51.356;-0.196;2022-12-26T11:38:04;101011.89;;;22.57;27.14
63916;BME280;50094;51.356;-0.196;2022-12-26T11:40:35;101013.39;;;22.63;27.16
63916;BME280;50094;51.356;-0.196;2022-12-26T11:43:05;101011.55;;;22.69;27.15
63916;BME280;50094;51.356;-0.196;2022-12-26T11:45:42;101014.33;;;22.72;27.15
63916;BME280;50094;51.356;-0.196;2022-12-26T11:48:24;101015.75;;;22.69;27.16
63916;BME280;50094;51.356;-0.196;2022-12-26T11:50:53;101017.99;;;22.83;27.14
63916;BME280;50094;51.356;-0.196;2022-12-26T11:53:22;101016.96;;;22.64;27.11
63916;BME280;50094;51.356;-0.196;2022-12-26T11:55:58;101014.11;;;22.49;27.07
63916;BME280;50094;51.356;-0.196;2022-12-26T11:58:28;101016.45;;;22.54;27.08
63916;BME280;50094;51.356;-0.196;2022-12-26T12:01:04;101017.61;;;22.71;27.06
63916;BME280;50094;51.356;-0.196;2022-12-26T12:03:35;101011.59;;;22.50;27.05
63916;BME280;50094;51.356;-0.196;2022-12-26T12:06:15;101007.51;;;22.54;27.07
63916;BME280;50094;51.356;-0.196;2022-12-26T12:08:50;101008.76;;;22.44;27.05
63916;BME280;50094;51.356;-0.196;2022-12-26T12:11:29;101009.85;;;22.81;27.03
63916;BME280;50094;51.356;-0.196;2022-12-26T12:14:09;101011.06;;;22.87;27.04
63916;BME280;50094;51.356;-0.196;2022-12-26T12:16:48;101010.63;;;22.81;27.03
63916;BME280;50094;51.356;-0.196;2022-12-26T12:19:26;101012.07;;;22.88;27.05
63916;BME280;50094;51.356;-0.196;2022-12-26T12:22:09;101007.63;;;22.94;27.03
63916;BME280;50094;51.356;-0.196;2022-12-26T12:24:52;101009.26;;;22.95;26.99
63916;BME280;50094;51.356;-0.196;2022-12-26T12:27:26;101006.02;;;22.61;26.92
63916;BME280;50094;51.356;-0.196;2022-12-26T12:30:08;101010.17;;;22.91;26.92
63916;BME280;50094;51.356;-0.196;2022-12-26T12:32:47;101010.08;;;22.66;26.87
63916;BME280;50094;51.356;-0.196;2022-12-26T12:35:27;101009.17;;;22.69;26.86
63916;BME280;50094;51.356;-0.196;2022-12-26T12:38:14;101014.16;;;22.94;26.87
63916;BME280;50094;51.356;-0.196;2022-12-26T12:40:47;101012.80;;;22.89;26.82
63916;BME280;50094;51.356;-0.196;2022-12-26T12:43:21;101005.31;;;22.70;26.85
63916;BME280;50094;51.356;-0.196;2022-12-26T12:45:58;101003.91;;;22.65;26.86
63916;BME280;50094;51.356;-0.196;2022-12-26T12:48:45;101006.35;;;22.64;26.82
63916;BME280;50094;51.356;-0.196;2022-12-26T12:51:27;101010.63;;;22.60;26.82
63916;BME280;50094;51.356;-0.196;2022-12-26T12:55:15;101013.93;;;22.41;26.81
63916;BME280;50094;51.356;-0.196;2022-12-26T12:57:47;101016.90;;;22.94;26.83
63916;BME280;50094;51.356;-0.196;2022-12-26T13:00:17;101021.00;;;22.74;26.78
63916;BME280;50094;51.356;-0.196;2022-12-26T13:02:50;101018.12;;;22.69;26.75
63916;BME280;50094;51.356;-0.196;2022-12-26T13:05:27;101017.12;;;22.93;26.73